עמוד ראשי
METAR-TAF:

METAR-TAF

שדות תעופה :

Valdivia, צ'ילה

קו רוחב: 39-37S, קו אורך: 073-05W, גובה: 19מטר

תצפית מזג אוויר נוכחית

הדו"ח נערך לפני 1 שעות ו 14דקות, בשעה 10:00 UTC
רוח 2קשר עם כיוונים משתנים
טמפרטורת 3 צלסיוס
לחות 100%
לחץ 1023 hPa
ראות: 1000מטר
ערפל,

METAR: SCVD 241000Z AUTO VRB02KT 1000 R35/1200U FG VV003 03/03 Q1023

זמן: 07:14 (11:14 UTC)

תחזית

הדו"ח נערך לפני 25 שעות ו 5דקות, בשעה 10:09 UTC
תחזית בתוקף מ 23 ב 12 UTC עד 23 ב 24 UTC
רוח 7קשר מכיוון צפון/צפון-מזרח
ראות: 8000מטר
עננים פזורים בגובה 2000רגל
מעונן בגובה 3000רגל
ממטרי גשם קלים
זמנית מ -
23 ב 18 UTC עד 23 ב 22 UTC
ראות 10 קילומטר או יותר
מעט עננים בגובה 800רגל
עננים פזורים בגובה 1500רגל
עננים בינוניים בגובה 4000רגל

TAF: SCVD 231009Z 2312/2324 02007KT 8000 -SHRA SCT020 OVC030 TN06/2312Z TX09/2318Z TEMPO 2318/2322 9999 NSW FEW008 SCT015 BKN040

תצפיות ותחזיות מזג אוויר לגבי יותר מ- 4,000 שדות תעופה ברחבי העולם. דוחות METAR ו- TAF.

התחנות הזמינות מסומנות בנקודות צהובות ואדומות על גבי המפה.

העבר את העכבר לנקודה הצבעונית על מנת לראות את שם התחנה.

לאחר מכן, לחץ כדי לראות את תוכן ואת תחזיות מזג האוויר.

כדי לשנות את המפה: לחץ על הכפתורים הירוקים עם הפלוס השחור כדי להתקרב; על הכפתור הירוק עם המקף כדי להתרחק; או בחיצים הירוקים למפות סמוכות.


METAR-TAF: